KBMT/BMT METAR and TAF weather

Enter ICAO airport designator
Station Type Date Time Source
KBMT METAR 2019/08/19 11:55 UTC NOAA

KBMT 191155Z AUTO 00000KT 10SM CLR 27/25 A2999 RMK AO2 T02650248 10273 20262


Station Type Date Time Source
KBMT Decoded METAR 2019/08/19 11:55 UTC NOAA

Station name not available
Aug 19, 2019 - 07:55 AM EDT / 2019.08.19 1155 UTC
Wind: Calm:0
Visibility: 10 mile(s):0
Sky conditions: clear
Temperature: 79.7 F (26.5 C)
Dew Point: 76.6 F (24.8 C)
Relative Humidity: 90%
Pressure (altimeter): 29.99 in. Hg (1015 hPa)
ob: KBMT 191155Z AUTO 00000KT 10SM CLR 27/25 A2999 RMK AO2 T02650248 10273 20262
cycle: 12

Station Type Date Time Source
KBMT TAF UTC NOAA

Error!

Example: see airport list